createdAt,value
2023-04-18T00:00:12.295Z,65.84
2023-04-18T00:02:39.975Z,65.81
2023-04-18T00:05:07.804Z,66.06
2023-04-18T00:07:37.542Z,66.41
2023-04-18T00:10:05.612Z,66.35
2023-04-18T00:12:34.244Z,66.32
2023-04-18T00:15:02.335Z,66.40
2023-04-18T00:17:31.940Z,66.51
2023-04-18T00:19:58.922Z,66.66
2023-04-18T00:22:25.794Z,66.91
2023-04-18T00:24:52.660Z,66.87
2023-04-18T00:27:19.691Z,66.83
2023-04-18T00:29:47.215Z,67.34
2023-04-18T00:32:17.162Z,66.97
2023-04-18T00:34:44.057Z,67.26
2023-04-18T00:37:12.806Z,67.38
2023-04-18T00:39:39.498Z,66.83
2023-04-18T00:42:06.536Z,66.94
2023-04-18T00:44:33.324Z,66.88
2023-04-18T00:47:00.188Z,66.85
2023-04-18T00:49:27.329Z,66.59
2023-04-18T00:51:55.920Z,66.57
2023-04-18T00:54:23.645Z,66.73
2023-04-18T00:56:50.558Z,66.45
2023-04-18T00:59:17.309Z,66.55
2023-04-18T01:01:45.257Z,66.57
2023-04-18T01:04:12.775Z,66.67
2023-04-18T01:06:40.865Z,66.68
2023-04-18T01:09:07.651Z,66.90
2023-04-18T01:11:34.402Z,66.68
2023-04-18T01:14:02.631Z,66.79
2023-04-18T01:16:30.163Z,66.78
2023-04-18T01:18:57.146Z,66.91
2023-04-18T01:21:24.047Z,67.06
2023-04-18T01:23:51.316Z,66.92
2023-04-18T01:26:18.141Z,67.21
2023-04-18T01:28:45.078Z,66.77
2023-04-18T01:31:11.911Z,66.41
2023-04-18T01:33:38.742Z,66.70
2023-04-18T01:36:05.661Z,67.01
2023-04-18T01:38:33.072Z,66.32
2023-04-18T01:41:00.987Z,66.58
2023-04-18T01:43:27.918Z,66.27
2023-04-18T01:45:54.632Z,66.80
2023-04-18T01:48:21.468Z,66.74
2023-04-18T01:50:48.350Z,66.19
2023-04-18T01:53:15.483Z,66.57
2023-04-18T01:55:44.142Z,66.32
2023-04-18T01:58:11.256Z,66.34
2023-04-18T02:00:38.065Z,66.37
2023-04-18T02:03:05.826Z,66.17
2023-04-18T02:05:32.652Z,66.08
2023-04-18T02:07:59.622Z,66.13
2023-04-18T02:10:26.425Z,66.00
2023-04-18T02:12:53.228Z,66.40
2023-04-18T02:15:19.998Z,66.02
2023-04-18T02:17:46.741Z,65.80
2023-04-18T02:20:14.670Z,66.03
2023-04-18T02:22:41.494Z,65.77
2023-04-18T02:25:08.551Z,66.38
2023-04-18T02:27:35.399Z,66.28
2023-04-18T02:30:02.598Z,66.20
2023-04-18T02:32:33.379Z,66.50
2023-04-18T02:35:00.160Z,66.06
2023-04-18T02:37:26.951Z,66.94
2023-04-18T02:39:54.077Z,66.42
2023-04-18T02:42:20.868Z,66.46
2023-04-18T02:44:47.637Z,67.04
2023-04-18T02:47:14.332Z,66.60
2023-04-18T02:49:43.711Z,66.68
2023-04-18T02:52:10.543Z,66.72
2023-04-18T02:54:37.288Z,66.71
2023-04-18T02:57:16.323Z,66.46
2023-04-18T02:59:57.686Z,66.68
2023-04-18T03:02:53.718Z,65.94
2023-04-18T03:05:37.187Z,66.90
2023-04-18T03:08:05.884Z,66.10
2023-04-18T03:10:33.975Z,66.45
2023-04-18T03:13:02.113Z,66.67
2023-04-18T03:15:31.087Z,66.45
2023-04-18T03:17:58.550Z,66.46
2023-04-18T03:20:28.835Z,66.58
2023-04-18T03:22:55.708Z,66.74
2023-04-18T03:25:25.210Z,67.29
2023-04-18T03:27:53.717Z,67.00
2023-04-18T03:30:22.573Z,66.90
2023-04-18T03:32:53.735Z,66.89
2023-04-18T03:35:20.783Z,67.09
2023-04-18T03:37:47.658Z,66.45
2023-04-18T03:40:22.227Z,66.66
2023-04-18T03:42:51.058Z,66.66
2023-04-18T03:45:17.764Z,67.23
2023-04-18T03:47:46.628Z,67.02
2023-04-18T03:50:13.669Z,67.27
2023-04-18T03:52:42.596Z,67.00
2023-04-18T03:55:09.695Z,67.09
2023-04-18T03:57:36.505Z,67.05
2023-04-18T04:00:08.537Z,67.45
2023-04-18T04:02:42.568Z,67.29
2023-04-18T04:05:12.569Z,67.45
2023-04-18T04:07:41.911Z,67.78
2023-04-18T04:10:09.188Z,67.37
2023-04-18T04:12:36.304Z,67.83
2023-04-18T04:15:03.432Z,67.30
2023-04-18T04:17:31.202Z,67.22
2023-04-18T04:19:58.332Z,67.30
2023-04-18T04:22:25.694Z,67.18
2023-04-18T04:24:53.023Z,67.31
2023-04-18T04:27:27.007Z,67.08
2023-04-18T04:29:54.670Z,67.64
2023-04-18T04:32:21.780Z,68.17
2023-04-18T04:34:49.343Z,68.22
2023-04-18T04:37:18.655Z,68.13
2023-04-18T04:40:11.775Z,67.85
2023-04-18T04:42:53.978Z,67.88
2023-04-18T04:45:26.695Z,67.88
2023-04-18T04:47:53.607Z,68.00
2023-04-18T04:50:21.020Z,68.13
2023-04-18T04:52:47.787Z,67.82
2023-04-18T04:55:14.689Z,68.03
2023-04-18T04:57:42.921Z,67.83
2023-04-18T05:00:30.989Z,68.36
2023-04-18T05:02:57.766Z,68.12
2023-04-18T05:05:26.395Z,68.14
2023-04-18T05:07:53.215Z,68.57
2023-04-18T05:10:20.044Z,69.05
2023-04-18T05:12:46.869Z,68.71
2023-04-18T05:15:16.004Z,68.87
2023-04-18T05:17:42.765Z,69.02
2023-04-18T05:20:10.112Z,68.92
2023-04-18T05:22:36.816Z,68.95
2023-04-18T05:25:03.718Z,69.58
2023-04-18T05:27:30.626Z,69.59
2023-04-18T05:29:57.379Z,69.67
2023-04-18T05:32:24.241Z,70.20
2023-04-18T05:34:51.163Z,70.18
2023-04-18T05:37:17.952Z,70.70
2023-04-18T05:39:44.789Z,69.94
2023-04-18T05:42:11.464Z,70.33
2023-04-18T05:44:38.202Z,70.17
2023-04-18T05:47:08.057Z,70.17
2023-04-18T05:49:35.215Z,69.59
2023-04-18T05:52:01.988Z,69.93
2023-04-18T05:54:29.660Z,70.31
2023-04-18T05:56:57.274Z,70.62
2023-04-18T05:59:24.210Z,70.77
2023-04-18T06:01:51.436Z,70.64
2023-04-18T06:04:19.837Z,70.96
2023-04-18T06:06:47.211Z,71.17
2023-04-18T06:09:14.068Z,71.39
2023-04-18T06:11:40.866Z,71.36
2023-04-18T06:14:07.908Z,70.88
2023-04-18T06:16:36.574Z,71.16
2023-04-18T06:19:03.998Z,71.21
2023-04-18T06:21:30.988Z,71.87
2023-04-18T06:23:57.773Z,71.24
2023-04-18T06:26:24.600Z,70.92
2023-04-18T06:28:51.463Z,71.07
2023-04-18T06:31:18.230Z,71.13
2023-04-18T06:33:45.237Z,70.76
2023-04-18T06:36:12.047Z,71.50
2023-04-18T06:38:38.982Z,71.85
2023-04-18T06:41:05.877Z,71.60
2023-04-18T06:43:32.904Z,71.28
2023-04-18T06:46:01.229Z,71.89
2023-04-18T06:48:28.141Z,71.64
2023-04-18T06:50:54.959Z,71.32
2023-04-18T06:53:22.065Z,72.11
2023-04-18T06:55:49.109Z,71.17
2023-04-18T06:58:17.751Z,72.15
2023-04-18T07:00:47.590Z,71.82
2023-04-18T07:03:14.755Z,71.50
2023-04-18T07:05:41.685Z,71.75
2023-04-18T07:08:08.492Z,71.73
2023-04-18T07:10:35.346Z,71.66
2023-04-18T07:13:02.314Z,71.69
2023-04-18T07:15:29.173Z,72.00
2023-04-18T07:17:56.073Z,72.46
2023-04-18T07:20:22.904Z,72.35
2023-04-18T07:22:49.782Z,72.55
2023-04-18T07:25:17.533Z,71.38
2023-04-18T07:27:44.524Z,73.02
2023-04-18T07:30:11.814Z,72.52
2023-04-18T07:32:38.591Z,73.40
2023-04-18T07:35:05.629Z,73.18
2023-04-18T07:37:32.662Z,73.10
2023-04-18T07:39:59.318Z,72.82
2023-04-18T07:42:26.096Z,72.85
2023-04-18T07:44:58.439Z,72.73
2023-04-18T07:47:32.289Z,72.65
2023-04-18T07:50:30.130Z,73.76
2023-04-18T07:52:57.757Z,73.86
2023-04-18T07:55:28.701Z,73.15
2023-04-18T07:57:57.795Z,73.61
2023-04-18T08:00:28.879Z,73.71
2023-04-18T08:02:56.730Z,73.88
2023-04-18T08:05:33.380Z,73.63
2023-04-18T08:08:03.427Z,73.07
2023-04-18T08:10:30.588Z,73.41
2023-04-18T08:12:57.735Z,74.05
2023-04-18T08:15:24.758Z,74.40
2023-04-18T08:17:51.730Z,73.55
2023-04-18T08:20:18.640Z,74.04
2023-04-18T08:23:02.362Z,73.26
2023-04-18T08:25:34.715Z,73.17
2023-04-18T08:28:01.910Z,73.64
2023-04-18T08:30:28.815Z,74.12
2023-04-18T08:32:55.658Z,73.96
2023-04-18T08:35:22.706Z,74.24
2023-04-18T08:37:49.958Z,74.46
2023-04-18T08:40:16.895Z,74.70
2023-04-18T08:42:46.565Z,75.53
2023-04-18T08:45:14.288Z,74.19
2023-04-18T08:47:42.181Z,74.63
2023-04-18T08:50:09.891Z,74.07
2023-04-18T08:52:37.751Z,73.94
2023-04-18T08:55:05.334Z,74.68
2023-04-18T08:57:33.349Z,74.34
2023-04-18T09:00:08.295Z,74.57
2023-04-18T09:02:42.576Z,75.01
2023-04-18T09:05:13.203Z,74.78
2023-04-18T09:07:40.605Z,74.21
2023-04-18T09:10:07.955Z,74.63
2023-04-18T09:12:42.353Z,73.89
2023-04-18T09:15:20.479Z,74.44
2023-04-18T09:17:53.872Z,74.72
2023-04-18T09:20:30.711Z,74.87
2023-04-18T09:23:00.625Z,74.46
2023-04-18T09:25:38.864Z,75.51
2023-04-18T09:28:27.979Z,74.04
2023-04-18T09:31:12.174Z,74.48
2023-04-18T09:33:57.422Z,74.07
2023-04-18T09:36:27.664Z,73.96
2023-04-18T09:38:57.048Z,74.51
2023-04-18T09:41:24.549Z,74.19
2023-04-18T09:44:08.329Z,74.08
2023-04-18T09:46:35.721Z,74.17
2023-04-18T09:49:02.631Z,73.97
2023-04-18T09:51:31.501Z,73.41
2023-04-18T09:53:58.740Z,73.54
2023-04-18T09:56:28.291Z,72.99
2023-04-18T09:58:57.550Z,72.83
2023-04-18T10:01:28.434Z,72.69
2023-04-18T10:03:56.316Z,73.62
2023-04-18T10:06:23.619Z,74.24
2023-04-18T10:08:55.535Z,73.82
2023-04-18T10:11:24.177Z,73.20
2023-04-18T10:13:54.090Z,73.62
2023-04-18T10:16:21.004Z,73.44
2023-04-18T10:18:49.765Z,72.96
2023-04-18T10:21:17.444Z,73.33
2023-04-18T10:23:48.667Z,73.44
2023-04-18T10:26:15.629Z,72.57
2023-04-18T10:28:58.538Z,74.12
2023-04-18T10:31:27.164Z,71.46
2023-04-18T10:36:28.524Z,71.12
2023-04-18T10:39:00.609Z,71.63
2023-04-18T10:41:29.316Z,71.52
2023-04-18T10:44:15.607Z,71.73
2023-04-18T10:46:51.960Z,72.58
2023-04-18T10:49:32.069Z,71.93
2023-04-18T10:52:00.833Z,72.44
2023-04-18T10:54:47.820Z,71.85
2023-04-18T10:57:15.259Z,71.87
2023-04-18T10:59:44.363Z,71.67
2023-04-18T11:02:30.696Z,72.39
2023-04-18T11:05:01.788Z,72.45
2023-04-18T11:07:48.752Z,73.75
2023-04-18T11:10:24.242Z,72.05
2023-04-18T11:12:51.660Z,72.94
2023-04-18T11:15:23.556Z,71.70
2023-04-18T11:18:01.557Z,73.12
2023-04-18T11:20:29.618Z,71.88
2023-04-18T11:23:00.784Z,72.08
2023-04-18T11:25:32.396Z,73.39
2023-04-18T11:28:00.114Z,72.13
2023-04-18T11:30:27.515Z,71.30
2023-04-18T11:32:55.963Z,72.91
2023-04-18T11:35:23.044Z,73.24
2023-04-18T11:37:51.099Z,71.31
2023-04-18T11:40:17.804Z,71.76
2023-04-18T11:42:44.706Z,69.97
2023-04-18T11:45:15.451Z,70.10
2023-04-18T11:47:43.211Z,70.19
2023-04-18T11:50:11.504Z,70.19
2023-04-18T11:52:40.057Z,69.98
2023-04-18T11:55:23.897Z,69.93
2023-04-18T11:58:01.355Z,70.99
2023-04-18T12:00:35.549Z,70.14
2023-04-18T12:03:04.647Z,70.33
2023-04-18T12:05:33.749Z,70.75
2023-04-18T12:08:13.407Z,70.73
2023-04-18T12:10:50.972Z,69.56
2023-04-18T12:13:19.026Z,69.44
2023-04-18T12:15:46.894Z,69.41
2023-04-18T12:18:15.366Z,70.51
2023-04-18T12:20:52.364Z,70.03
2023-04-18T12:23:35.418Z,69.70
2023-04-18T12:26:11.714Z,69.18
2023-04-18T12:28:38.450Z,69.80
2023-04-18T12:31:08.672Z,68.79
2023-04-18T12:33:36.600Z,69.12
2023-04-18T12:36:05.584Z,69.77
2023-04-18T12:38:32.371Z,68.50
2023-04-18T12:40:59.024Z,67.38
2023-04-18T12:43:25.855Z,67.40
2023-04-18T12:45:52.562Z,68.48
2023-04-18T12:48:19.800Z,66.89
2023-04-18T12:50:46.510Z,67.41
2023-04-18T12:53:13.968Z,68.40
2023-04-18T12:55:40.666Z,68.42
2023-04-18T12:58:07.747Z,68.57
2023-04-18T13:00:34.795Z,68.09
2023-04-18T13:03:01.738Z,68.01
2023-04-18T13:05:32.482Z,67.58
2023-04-18T13:10:33.450Z,67.09
2023-04-18T13:13:00.376Z,67.59
2023-04-18T13:15:27.467Z,68.92
2023-04-18T13:17:55.965Z,68.27
2023-04-18T13:20:22.707Z,67.57
2023-04-18T13:22:49.451Z,65.66
2023-04-18T13:25:16.827Z,67.32
2023-04-18T13:27:46.879Z,68.11
2023-04-18T13:30:14.091Z,67.38
2023-04-18T13:32:42.611Z,66.54
2023-04-18T13:35:12.887Z,65.55
2023-04-18T13:37:39.728Z,66.64
2023-04-18T13:40:07.226Z,66.52
2023-04-18T13:42:34.292Z,65.90
2023-04-18T13:45:01.033Z,66.03
2023-04-18T13:47:27.832Z,65.97
2023-04-18T13:49:54.610Z,65.76
2023-04-18T13:52:21.313Z,63.64
2023-04-18T13:54:48.197Z,65.31
2023-04-18T13:57:15.269Z,65.55
2023-04-18T13:59:42.083Z,65.77
2023-04-18T14:02:10.475Z,65.13
2023-04-18T14:04:37.754Z,64.46
2023-04-18T14:07:06.335Z,64.64
2023-04-18T14:09:33.140Z,65.41
2023-04-18T14:11:59.943Z,65.28
2023-04-18T14:14:26.662Z,65.95
2023-04-18T14:16:54.023Z,66.29
2023-04-18T14:19:20.937Z,66.06
2023-04-18T14:21:48.411Z,66.39
2023-04-18T14:24:15.443Z,66.12
2023-04-18T14:26:42.212Z,63.93
2023-04-18T14:29:09.007Z,63.07
2023-04-18T14:31:35.895Z,62.68
2023-04-18T14:34:05.691Z,63.40
2023-04-18T14:36:32.707Z,62.85
2023-04-18T14:39:02.644Z,63.25
2023-04-18T14:41:29.898Z,64.57
2023-04-18T14:43:56.667Z,64.52
2023-04-18T14:46:23.384Z,63.56
2023-04-18T14:48:50.113Z,64.08
2023-04-18T14:51:17.123Z,64.43
2023-04-18T14:53:45.585Z,64.17
2023-04-18T14:56:12.658Z,64.10
2023-04-18T14:58:46.841Z,64.42
2023-04-18T15:01:13.634Z,64.49
2023-04-18T15:03:41.110Z,64.56
2023-04-18T15:06:08.010Z,63.44
2023-04-18T15:08:34.729Z,63.58
2023-04-18T15:11:05.953Z,63.54
2023-04-18T15:13:33.261Z,64.15
2023-04-18T15:16:00.034Z,64.25
2023-04-18T15:18:27.470Z,63.95
2023-04-18T15:20:54.195Z,63.29
2023-04-18T15:23:21.330Z,63.57
2023-04-18T15:25:47.997Z,63.96
2023-04-18T15:28:18.611Z,64.09
2023-04-18T15:30:46.341Z,64.12
2023-04-18T15:33:13.609Z,63.65
2023-04-18T15:35:40.693Z,63.58
2023-04-18T15:38:07.539Z,63.75
2023-04-18T15:40:36.161Z,63.83
2023-04-18T15:43:03.224Z,63.67
2023-04-18T15:45:30.301Z,64.12
2023-04-18T15:47:57.609Z,63.79
2023-04-18T15:50:24.456Z,63.24
2023-04-18T15:52:51.276Z,62.54
2023-04-18T15:55:18.003Z,62.44
2023-04-18T15:57:44.927Z,62.89
2023-04-18T16:00:19.498Z,62.16
2023-04-18T16:02:47.285Z,62.96
2023-04-18T16:05:17.551Z,62.24
2023-04-18T16:08:04.564Z,62.18
2023-04-18T16:10:31.458Z,62.03
2023-04-18T16:12:59.487Z,62.45
2023-04-18T16:15:26.253Z,62.73
2023-04-18T16:17:53.090Z,62.92
2023-04-18T16:20:20.061Z,62.68
2023-04-18T16:22:47.150Z,62.53
2023-04-18T16:25:14.624Z,62.22
2023-04-18T16:27:43.147Z,62.18
2023-04-18T16:30:10.188Z,61.85
2023-04-18T16:32:38.125Z,62.19
2023-04-18T16:35:07.617Z,62.23
2023-04-18T16:37:34.442Z,61.34
2023-04-18T16:40:01.284Z,61.04
2023-04-18T16:42:28.145Z,61.28
2023-04-18T16:44:54.948Z,61.94
2023-04-18T16:47:21.734Z,62.15
2023-04-18T16:49:48.746Z,62.32
2023-04-18T16:52:16.921Z,61.70
2023-04-18T16:54:46.532Z,61.82
2023-04-18T16:57:13.347Z,61.76
2023-04-18T16:59:41.718Z,62.31
2023-04-18T17:02:08.473Z,62.61
2023-04-18T17:04:35.494Z,62.09
2023-04-18T17:07:05.121Z,62.06
2023-04-18T17:09:31.916Z,61.97
2023-04-18T17:11:59.670Z,61.77
2023-04-18T17:14:31.982Z,62.37
2023-04-18T17:16:58.666Z,61.68
2023-04-18T17:19:26.199Z,61.45
2023-04-18T17:21:52.932Z,61.58
2023-04-18T17:24:22.333Z,61.68
2023-04-18T17:26:49.957Z,62.33
2023-04-18T17:29:17.009Z,62.26
2023-04-18T17:31:43.864Z,62.47
2023-04-18T17:34:10.839Z,63.02
2023-04-18T17:36:37.601Z,62.93
2023-04-18T17:39:07.317Z,63.34
2023-04-18T17:41:37.894Z,63.87
2023-04-18T17:44:05.615Z,64.39
2023-04-18T17:46:32.672Z,64.18
2023-04-18T17:48:59.864Z,63.83
2023-04-18T17:51:27.414Z,64.43
2023-04-18T17:53:54.962Z,64.74
2023-04-18T17:56:23.545Z,64.44
2023-04-18T17:58:50.601Z,64.98
2023-04-18T18:01:18.994Z,64.35
2023-04-18T18:03:46.838Z,64.93
2023-04-18T18:06:14.677Z,64.81
2023-04-18T18:08:42.696Z,64.83
2023-04-18T18:11:10.577Z,64.98
2023-04-18T18:13:38.877Z,65.63
2023-04-18T18:16:06.367Z,65.73
2023-04-18T18:18:33.192Z,65.94
2023-04-18T18:20:59.914Z,66.12
2023-04-18T18:23:26.756Z,65.44
2023-04-18T18:25:56.446Z,65.92
2023-04-18T18:28:23.257Z,65.54
2023-04-18T18:30:50.019Z,66.05
2023-04-18T18:33:16.773Z,66.17
2023-04-18T18:35:43.548Z,65.87
2023-04-18T18:38:11.072Z,66.40
2023-04-18T18:40:37.761Z,66.63
2023-04-18T18:43:04.706Z,66.35
2023-04-18T18:45:31.712Z,66.28
2023-04-18T18:47:58.705Z,65.96
2023-04-18T18:50:25.443Z,66.14
2023-04-18T18:52:54.738Z,66.44
2023-04-18T18:55:21.611Z,66.22
2023-04-18T18:57:48.388Z,66.23
2023-04-18T19:00:15.363Z,66.32
2023-04-18T19:02:42.225Z,66.54
2023-04-18T19:05:09.586Z,67.11
2023-04-18T19:07:36.337Z,66.63
2023-04-18T19:10:03.486Z,66.77
2023-04-18T19:12:34.726Z,67.36
2023-04-18T19:15:01.761Z,67.48
2023-04-18T19:17:28.787Z,68.12
2023-04-18T19:19:58.048Z,67.09
2023-04-18T19:22:24.900Z,67.81
2023-04-18T19:24:52.031Z,67.51
2023-04-18T19:27:18.760Z,67.38
2023-04-18T19:29:45.726Z,67.35
2023-04-18T19:32:12.471Z,67.71
2023-04-18T19:34:39.377Z,67.67
2023-04-18T19:37:08.655Z,67.77
2023-04-18T19:39:35.389Z,67.50
2023-04-18T19:42:03.804Z,68.24
2023-04-18T19:44:32.946Z,67.75
2023-04-18T19:47:00.763Z,67.96
2023-04-18T19:49:27.574Z,67.82
2023-04-18T19:51:54.397Z,68.48
2023-04-18T19:54:22.046Z,67.64
2023-04-18T19:56:49.003Z,68.39
2023-04-18T19:59:16.244Z,68.15
2023-04-18T20:01:43.213Z,68.19
2023-04-18T20:04:10.183Z,67.78
2023-04-18T20:06:37.548Z,68.44
2023-04-18T20:09:05.519Z,68.25
2023-04-18T20:11:32.462Z,68.82
2023-04-18T20:13:59.354Z,68.76
2023-04-18T20:16:26.537Z,68.94
2023-04-18T20:18:54.880Z,68.13
2023-04-18T20:21:21.927Z,68.39
2023-04-18T20:23:48.667Z,68.35
2023-04-18T20:26:15.532Z,68.19
2023-04-18T20:28:42.364Z,68.23
2023-04-18T20:31:11.370Z,68.29
2023-04-18T20:33:38.363Z,68.04
2023-04-18T20:36:06.399Z,68.07
2023-04-18T20:38:33.695Z,68.87
2023-04-18T20:41:00.815Z,68.36
2023-04-18T20:43:28.737Z,68.12
2023-04-18T20:45:59.655Z,68.56
2023-04-18T20:48:26.486Z,68.25
2023-04-18T20:50:53.433Z,68.21
2023-04-18T20:53:21.630Z,68.57
2023-04-18T20:55:48.800Z,68.75
2023-04-18T20:58:16.094Z,68.35
2023-04-18T21:00:44.504Z,68.35
2023-04-18T21:03:15.595Z,68.38
2023-04-18T21:05:43.529Z,68.33
2023-04-18T21:08:11.535Z,69.29
2023-04-18T21:10:38.478Z,69.55
2023-04-18T21:13:05.373Z,69.12
2023-04-18T21:15:32.067Z,68.19
2023-04-18T21:18:00.135Z,69.19
2023-04-18T21:20:26.902Z,69.42
2023-04-18T21:22:53.644Z,68.64
2023-04-18T21:25:21.338Z,69.12
2023-04-18T21:27:50.862Z,68.47
2023-04-18T21:30:17.763Z,69.02
2023-04-18T21:32:45.787Z,68.14
2023-04-18T21:35:12.652Z,68.56
2023-04-18T21:37:39.374Z,69.36
2023-04-18T21:40:07.056Z,69.23
2023-04-18T21:42:35.528Z,68.81
2023-04-18T21:45:04.870Z,69.57
2023-04-18T21:47:32.837Z,68.80
2023-04-18T21:49:59.557Z,68.17
2023-04-18T21:52:28.596Z,69.01
2023-04-18T21:54:55.916Z,68.96
2023-04-18T21:57:22.740Z,68.88
2023-04-18T21:59:49.500Z,68.92
2023-04-18T22:02:16.362Z,68.70
2023-04-18T22:04:44.105Z,68.87
2023-04-18T22:07:12.282Z,69.38
2023-04-18T22:09:39.040Z,69.38
2023-04-18T22:12:05.855Z,69.49
2023-04-18T22:14:32.629Z,69.64
2023-04-18T22:17:01.857Z,69.61
2023-04-18T22:19:29.557Z,69.90
2023-04-18T22:21:59.298Z,69.79
2023-04-18T22:24:25.997Z,69.86
2023-04-18T22:26:53.193Z,69.71
2023-04-18T22:29:19.902Z,69.37
2023-04-18T22:31:46.830Z,69.43
2023-04-18T22:34:13.978Z,69.42
2023-04-18T22:36:42.689Z,70.01
2023-04-18T22:39:09.555Z,69.78
2023-04-18T22:41:36.193Z,70.39
2023-04-18T22:44:04.619Z,69.82
2023-04-18T22:46:32.691Z,69.75
2023-04-18T22:48:59.660Z,69.78
2023-04-18T22:51:28.469Z,69.88
2023-04-18T22:53:58.735Z,69.87
2023-04-18T22:56:25.511Z,70.23
2023-04-18T22:58:52.326Z,70.24
2023-04-18T23:01:19.119Z,70.50
2023-04-18T23:03:46.531Z,69.71
2023-04-18T23:06:13.548Z,70.18
2023-04-18T23:08:40.372Z,70.04
2023-04-18T23:11:07.186Z,70.10
2023-04-18T23:13:33.929Z,70.52
2023-04-18T23:16:00.989Z,69.91
2023-04-18T23:18:30.905Z,70.48
2023-04-18T23:20:57.732Z,70.39
2023-04-18T23:23:24.485Z,69.75
2023-04-18T23:25:52.018Z,70.11
2023-04-18T23:28:18.886Z,70.24
2023-04-18T23:30:45.769Z,70.21
2023-04-18T23:33:12.468Z,70.16
2023-04-18T23:35:39.101Z,70.39
2023-04-18T23:38:05.943Z,70.15
2023-04-18T23:40:32.710Z,69.80
2023-04-18T23:42:59.426Z,69.74
2023-04-18T23:45:26.230Z,70.42
2023-04-18T23:47:53.108Z,70.21
2023-04-18T23:50:20.075Z,70.24
2023-04-18T23:52:46.803Z,70.50
2023-04-18T23:55:13.871Z,70.16
2023-04-18T23:57:40.638Z,70.28
